createdAt,value
2022-08-17T00:00:11.042Z,24.68
2022-08-17T00:03:15.335Z,24.65
2022-08-17T00:05:47.216Z,24.62
2022-08-17T00:08:16.157Z,24.62
2022-08-17T00:10:44.766Z,24.62
2022-08-17T00:13:24.956Z,24.60
2022-08-17T00:15:52.979Z,24.57
2022-08-17T00:19:01.011Z,24.54
2022-08-17T00:21:10.701Z,24.55
2022-08-17T00:23:39.603Z,24.57
2022-08-17T00:26:16.368Z,24.55
2022-08-17T00:29:04.021Z,24.50
2022-08-17T00:31:32.067Z,24.43
2022-08-17T00:33:59.676Z,24.41
2022-08-17T00:36:27.444Z,24.42
2022-08-17T00:38:54.684Z,24.37
2022-08-17T00:41:24.129Z,24.31
2022-08-17T00:43:56.438Z,24.26
2022-08-17T00:46:28.505Z,24.27
2022-08-17T00:48:56.013Z,24.27
2022-08-17T00:51:32.628Z,24.26
2022-08-17T00:54:14.176Z,24.21
2022-08-17T00:56:47.504Z,24.15
2022-08-17T00:59:18.096Z,24.12
2022-08-17T01:01:45.393Z,24.18
2022-08-17T01:04:12.582Z,24.26
2022-08-17T01:06:40.617Z,24.29
2022-08-17T01:09:08.980Z,24.27
2022-08-17T01:11:37.427Z,24.20
2022-08-17T01:14:05.082Z,24.19
2022-08-17T01:16:32.608Z,24.19
2022-08-17T01:19:01.541Z,24.18
2022-08-17T01:21:43.997Z,24.17
2022-08-17T01:24:11.184Z,24.18
2022-08-17T01:26:41.484Z,24.23
2022-08-17T01:29:08.937Z,24.31
2022-08-17T01:31:43.957Z,24.33
2022-08-17T01:34:12.477Z,24.31
2022-08-17T01:36:41.066Z,24.29
2022-08-17T01:39:12.388Z,24.33
2022-08-17T01:41:40.696Z,24.41
2022-08-17T01:44:08.296Z,24.42
2022-08-17T01:46:37.193Z,24.41
2022-08-17T01:49:08.773Z,24.41
2022-08-17T01:51:36.088Z,24.41
2022-08-17T01:54:05.864Z,24.46
2022-08-17T01:56:33.663Z,24.52
2022-08-17T01:59:01.741Z,24.53
2022-08-17T02:01:30.645Z,24.51
2022-08-17T02:04:01.407Z,24.50
2022-08-17T02:06:31.652Z,24.48
2022-08-17T02:09:16.970Z,24.52
2022-08-17T02:11:44.623Z,24.56
2022-08-17T02:14:15.512Z,24.57
2022-08-17T02:16:43.684Z,24.60
2022-08-17T02:19:13.288Z,24.60
2022-08-17T02:21:40.697Z,24.57
2022-08-17T02:24:08.991Z,24.60
2022-08-17T02:26:37.338Z,24.65
2022-08-17T02:29:04.606Z,24.66
2022-08-17T02:31:31.858Z,24.66
2022-08-17T02:34:03.632Z,24.66
2022-08-17T02:36:36.331Z,24.63
2022-08-17T02:39:09.642Z,24.65
2022-08-17T02:41:37.036Z,24.66
2022-08-17T02:44:06.022Z,24.63
2022-08-17T02:46:33.306Z,24.58
2022-08-17T02:49:04.281Z,24.53
2022-08-17T02:51:32.025Z,24.48
2022-08-17T02:54:02.199Z,24.47
2022-08-17T02:56:46.432Z,24.48
2022-08-17T02:59:14.899Z,24.43
2022-08-17T03:01:42.085Z,24.34
2022-08-17T03:04:09.408Z,24.26
2022-08-17T03:06:38.115Z,24.26
2022-08-17T03:09:05.405Z,24.28
2022-08-17T03:11:33.581Z,24.30
2022-08-17T03:14:01.057Z,24.29
2022-08-17T03:16:28.203Z,24.28
2022-08-17T03:18:55.624Z,24.28
2022-08-17T03:21:22.915Z,24.34
2022-08-17T03:23:54.421Z,24.42
2022-08-17T03:26:22.053Z,24.47
2022-08-17T03:28:49.421Z,24.50
2022-08-17T03:31:18.654Z,24.52
2022-08-17T03:33:45.830Z,24.53
2022-08-17T03:36:13.215Z,24.60
2022-08-17T03:38:40.505Z,24.69
2022-08-17T03:41:08.834Z,24.75
2022-08-17T03:43:36.115Z,24.78
2022-08-17T03:46:28.386Z,24.82
2022-08-17T03:49:22.897Z,24.84
2022-08-17T03:52:09.063Z,24.92
2022-08-17T03:54:54.896Z,24.99
2022-08-17T03:57:22.087Z,25.03
2022-08-17T03:59:49.753Z,25.06
2022-08-17T04:02:26.966Z,25.09
2022-08-17T04:04:54.404Z,25.11
2022-08-17T04:07:23.004Z,25.15
2022-08-17T04:09:51.038Z,25.21
2022-08-17T04:12:19.590Z,25.29
2022-08-17T04:14:52.677Z,25.32
2022-08-17T04:17:24.491Z,25.33
2022-08-17T04:19:52.232Z,25.33
2022-08-17T04:22:31.454Z,25.30
2022-08-17T04:25:03.858Z,25.29
2022-08-17T04:27:32.102Z,25.32
2022-08-17T04:29:59.397Z,25.37
2022-08-17T04:33:03.988Z,25.38
2022-08-17T04:35:18.720Z,25.38
2022-08-17T04:37:46.085Z,25.39
2022-08-17T04:40:31.994Z,25.38
2022-08-17T04:43:02.965Z,25.37
2022-08-17T04:45:32.338Z,25.34
2022-08-17T04:48:00.977Z,25.32
2022-08-17T04:50:28.355Z,25.36
2022-08-17T04:52:56.644Z,25.44
2022-08-17T04:55:24.191Z,25.48
2022-08-17T04:57:51.358Z,25.51
2022-08-17T05:00:19.096Z,25.54
2022-08-17T05:02:49.612Z,25.55
2022-08-17T05:05:25.198Z,25.55
2022-08-17T05:07:54.650Z,25.56
2022-08-17T05:10:26.842Z,25.62
2022-08-17T05:13:04.096Z,25.71
2022-08-17T05:15:35.945Z,25.77
2022-08-17T05:18:04.299Z,25.78
2022-08-17T05:20:31.910Z,25.79
2022-08-17T05:23:01.225Z,25.80
2022-08-17T05:25:32.757Z,25.82
2022-08-17T05:28:04.271Z,25.89
2022-08-17T05:30:33.921Z,26.03
2022-08-17T05:33:06.562Z,26.19
2022-08-17T05:35:35.575Z,26.33
2022-08-17T05:38:02.918Z,26.43
2022-08-17T05:40:32.811Z,26.52
2022-08-17T05:43:08.492Z,26.59
2022-08-17T05:46:02.165Z,26.66
2022-08-17T05:48:39.690Z,26.79
2022-08-17T05:51:19.934Z,26.88
2022-08-17T05:54:13.916Z,26.92
2022-08-17T05:56:56.502Z,26.94
2022-08-17T05:59:57.769Z,26.95
2022-08-17T06:02:30.089Z,26.93
2022-08-17T06:05:06.403Z,26.88
2022-08-17T06:07:48.092Z,26.91
2022-08-17T06:10:30.545Z,26.99
2022-08-17T06:13:26.338Z,27.04
2022-08-17T06:15:59.424Z,27.11
2022-08-17T06:18:30.175Z,27.18
2022-08-17T06:21:00.644Z,27.24
2022-08-17T06:23:34.876Z,27.32
2022-08-17T06:26:09.386Z,27.40
2022-08-17T06:28:44.702Z,27.50
2022-08-17T06:31:27.772Z,27.54
2022-08-17T06:34:01.699Z,27.50
2022-08-17T06:36:38.029Z,27.41
2022-08-17T06:39:27.378Z,27.29
2022-08-17T06:42:06.970Z,27.23
2022-08-17T06:44:43.492Z,27.19
2022-08-17T06:47:27.989Z,27.13
2022-08-17T06:50:05.809Z,27.11
2022-08-17T06:52:45.739Z,27.09
2022-08-17T06:55:19.671Z,27.05
2022-08-17T06:57:51.312Z,26.95
2022-08-17T07:03:21.928Z,26.90
2022-08-17T07:05:58.241Z,26.92
2022-08-17T07:09:02.624Z,26.94
2022-08-17T07:11:50.755Z,26.91
2022-08-17T07:14:36.885Z,26.92
2022-08-17T07:17:13.544Z,26.94
2022-08-17T07:19:45.635Z,26.95
2022-08-17T07:22:28.223Z,26.98
2022-08-17T07:24:59.974Z,27.07
2022-08-17T07:27:51.368Z,27.15
2022-08-17T07:30:24.849Z,27.20
2022-08-17T07:32:57.596Z,27.21
2022-08-17T07:35:31.404Z,27.22
2022-08-17T07:38:24.732Z,27.22
2022-08-17T07:41:03.089Z,27.23
2022-08-17T07:43:40.080Z,27.25
2022-08-17T07:46:42.477Z,27.34
2022-08-17T07:49:09.711Z,27.41
2022-08-17T07:51:41.048Z,27.47
2022-08-17T07:54:23.119Z,27.52
2022-08-17T07:56:54.396Z,27.57
2022-08-17T07:59:33.841Z,27.66
2022-08-17T08:02:06.366Z,27.74
2022-08-17T08:04:59.762Z,27.78
2022-08-17T08:07:37.615Z,27.92
2022-08-17T08:10:42.562Z,28.05
2022-08-17T08:13:14.674Z,28.01
2022-08-17T08:15:53.719Z,27.97
2022-08-17T08:18:41.197Z,27.98
2022-08-17T08:21:42.095Z,27.93
2022-08-17T08:24:43.766Z,27.92
2022-08-17T08:27:50.637Z,28.03
2022-08-17T08:30:21.588Z,28.10
2022-08-17T08:32:57.270Z,28.16
2022-08-17T08:35:38.491Z,28.27
2022-08-17T08:38:08.837Z,28.36
2022-08-17T08:40:43.807Z,28.32
2022-08-17T08:43:19.832Z,28.29
2022-08-17T08:45:47.381Z,28.38
2022-08-17T08:48:53.344Z,28.43
2022-08-17T08:51:22.216Z,28.38
2022-08-17T08:54:04.153Z,28.32
2022-08-17T08:56:35.647Z,28.22
2022-08-17T08:59:28.310Z,28.12
2022-08-17T09:02:26.749Z,27.98
2022-08-17T09:05:16.355Z,27.94
2022-08-17T09:08:12.068Z,27.91
2022-08-17T09:10:51.676Z,27.96
2022-08-17T09:13:23.924Z,27.90
2022-08-17T09:15:57.598Z,27.84
2022-08-17T09:19:00.067Z,27.84
2022-08-17T09:21:52.925Z,27.88
2022-08-17T09:24:32.248Z,27.97
2022-08-17T09:27:06.666Z,28.10
2022-08-17T09:29:37.041Z,28.06
2022-08-17T09:32:10.199Z,27.97
2022-08-17T09:34:43.553Z,27.83
2022-08-17T09:37:20.526Z,27.65
2022-08-17T09:40:14.083Z,27.58
2022-08-17T09:42:44.889Z,27.62
2022-08-17T09:45:51.685Z,27.68
2022-08-17T09:48:22.209Z,27.78
2022-08-17T09:51:08.143Z,27.74
2022-08-17T09:53:36.769Z,27.73
2022-08-17T09:56:13.176Z,27.76
2022-08-17T09:58:43.198Z,27.85
2022-08-17T10:01:20.715Z,27.99
2022-08-17T10:04:20.591Z,28.08
2022-08-17T10:07:03.467Z,28.18
2022-08-17T10:10:19.897Z,28.25
2022-08-17T10:13:25.022Z,28.29
2022-08-17T10:16:04.768Z,28.34
2022-08-17T10:18:39.091Z,28.43
2022-08-17T10:21:30.284Z,28.46
2022-08-17T10:24:27.515Z,28.45
2022-08-17T10:26:57.066Z,28.41
2022-08-17T10:29:29.147Z,28.37
2022-08-17T10:32:04.391Z,28.38
2022-08-17T10:34:51.397Z,28.48
2022-08-17T10:37:19.887Z,28.62
2022-08-17T10:39:52.684Z,28.70
2022-08-17T10:42:42.956Z,28.73
2022-08-17T10:45:29.863Z,28.75
2022-08-17T10:48:05.770Z,28.77
2022-08-17T10:51:00.518Z,28.77
2022-08-17T10:53:33.912Z,28.74
2022-08-17T10:56:13.509Z,28.78
2022-08-17T10:58:57.863Z,28.86
2022-08-17T11:01:34.267Z,28.91
2022-08-17T11:04:21.612Z,28.86
2022-08-17T11:07:07.906Z,28.80
2022-08-17T11:09:41.899Z,28.73
2022-08-17T11:12:18.814Z,28.69
2022-08-17T11:15:10.240Z,28.66
2022-08-17T11:18:14.908Z,28.75
2022-08-17T11:21:00.983Z,28.81
2022-08-17T11:23:34.298Z,28.74
2022-08-17T11:26:08.567Z,28.67
2022-08-17T11:28:46.286Z,28.66
2022-08-17T11:31:41.481Z,28.74
2022-08-17T11:34:14.815Z,28.79
2022-08-17T11:37:03.890Z,28.78
2022-08-17T11:39:49.403Z,28.73
2022-08-17T11:42:36.539Z,28.73
2022-08-17T11:45:10.328Z,28.70
2022-08-17T11:48:26.052Z,28.61
2022-08-17T11:51:34.553Z,28.50
2022-08-17T11:54:35.963Z,28.41
2022-08-17T11:57:26.372Z,28.31
2022-08-17T12:00:03.449Z,28.22
2022-08-17T12:02:39.022Z,28.11
2022-08-17T12:05:12.608Z,28.02
2022-08-17T12:07:53.000Z,27.98
2022-08-17T12:10:22.484Z,27.93
2022-08-17T12:12:50.448Z,27.76
2022-08-17T12:15:21.311Z,27.53
2022-08-17T12:17:53.693Z,27.36
2022-08-17T12:20:32.908Z,27.14
2022-08-17T12:23:38.504Z,26.88
2022-08-17T12:26:11.222Z,26.53
2022-08-17T12:28:39.060Z,26.19
2022-08-17T12:31:08.136Z,25.83
2022-08-17T12:33:36.767Z,25.43
2022-08-17T12:36:05.847Z,25.03
2022-08-17T12:38:34.965Z,24.74
2022-08-17T12:41:26.237Z,24.47
2022-08-17T12:44:02.544Z,24.26
2022-08-17T12:46:43.243Z,24.19
2022-08-17T12:49:23.612Z,24.21
2022-08-17T12:51:51.677Z,24.29
2022-08-17T12:54:25.998Z,24.30
2022-08-17T12:56:53.400Z,24.25
2022-08-17T12:59:30.312Z,24.17
2022-08-17T13:01:58.054Z,24.13
2022-08-17T13:04:26.547Z,24.17
2022-08-17T13:07:00.296Z,24.24
2022-08-17T13:09:35.419Z,24.30
2022-08-17T13:12:09.309Z,24.33
2022-08-17T13:14:37.228Z,24.33
2022-08-17T13:17:11.087Z,24.43
2022-08-17T13:19:48.139Z,24.55
2022-08-17T13:22:15.656Z,24.61
2022-08-17T13:25:09.360Z,24.60
2022-08-17T13:27:36.651Z,24.65
2022-08-17T13:30:12.366Z,24.72
2022-08-17T13:32:44.040Z,24.76
2022-08-17T13:35:46.491Z,24.81
2022-08-17T13:38:49.738Z,24.81
2022-08-17T13:41:34.827Z,24.83
2022-08-17T13:44:02.119Z,24.91
2022-08-17T13:46:33.252Z,24.97
2022-08-17T13:49:11.704Z,25.04
2022-08-17T13:51:43.644Z,25.07
2022-08-17T13:54:34.481Z,25.08
2022-08-17T13:57:08.203Z,25.09
2022-08-17T13:59:55.268Z,25.17
2022-08-17T14:02:23.494Z,25.23
2022-08-17T14:04:57.074Z,25.25
2022-08-17T14:07:33.952Z,25.26
2022-08-17T14:10:10.170Z,25.30
2022-08-17T14:12:40.939Z,25.38
2022-08-17T14:15:09.070Z,25.47
2022-08-17T14:17:38.892Z,25.51
2022-08-17T14:20:09.706Z,25.52
2022-08-17T14:22:38.608Z,25.53
2022-08-17T14:25:08.692Z,25.58
2022-08-17T14:27:51.795Z,25.66
2022-08-17T14:30:22.765Z,25.74
2022-08-17T14:32:52.229Z,25.77
2022-08-17T14:35:22.546Z,25.77
2022-08-17T14:37:50.673Z,25.78
2022-08-17T14:40:25.063Z,25.82
2022-08-17T14:42:53.340Z,25.88
2022-08-17T14:45:20.603Z,25.93
2022-08-17T14:48:00.426Z,25.93
2022-08-17T14:50:27.893Z,25.95
2022-08-17T14:52:58.067Z,25.96
2022-08-17T14:55:26.457Z,26.02
2022-08-17T14:57:53.764Z,26.07
2022-08-17T15:00:21.118Z,26.09
2022-08-17T15:02:56.604Z,26.08
2022-08-17T15:05:26.349Z,26.08
2022-08-17T15:07:56.024Z,26.14
2022-08-17T15:10:25.903Z,26.19
2022-08-17T15:12:53.552Z,26.18
2022-08-17T15:15:20.978Z,26.15
2022-08-17T15:17:48.511Z,26.11
2022-08-17T15:20:18.409Z,26.06
2022-08-17T15:22:46.127Z,26.10
2022-08-17T15:25:13.418Z,26.16
2022-08-17T15:27:41.537Z,26.19
2022-08-17T15:30:09.682Z,26.18
2022-08-17T15:32:38.934Z,26.16
2022-08-17T15:35:07.055Z,26.21
2022-08-17T15:37:34.263Z,26.28
2022-08-17T15:40:02.737Z,26.28
2022-08-17T15:42:30.566Z,26.21
2022-08-17T15:44:57.817Z,26.15
2022-08-17T15:47:25.133Z,26.14
2022-08-17T15:49:57.906Z,26.15
2022-08-17T15:52:28.543Z,26.13
2022-08-17T15:54:58.546Z,26.08
2022-08-17T15:57:26.033Z,26.07
2022-08-17T15:59:55.486Z,26.11
2022-08-17T16:03:45.218Z,26.10
2022-08-17T16:05:22.228Z,26.06
2022-08-17T16:07:53.011Z,26.11
2022-08-17T16:10:21.393Z,26.17
2022-08-17T16:12:49.960Z,26.17
2022-08-17T16:15:18.126Z,26.16
2022-08-17T16:17:45.893Z,26.15
2022-08-17T16:20:20.554Z,26.15
2022-08-17T16:22:49.272Z,26.17
2022-08-17T16:25:20.790Z,26.18
2022-08-17T16:27:53.891Z,26.19
2022-08-17T16:30:24.099Z,26.18
2022-08-17T16:32:54.194Z,26.18
2022-08-17T16:35:23.168Z,26.20
2022-08-17T16:37:54.686Z,26.22
2022-08-17T16:40:24.200Z,26.16
2022-08-17T16:42:51.908Z,26.08
2022-08-17T16:45:23.042Z,26.05
2022-08-17T16:47:50.651Z,26.02
2022-08-17T16:50:21.367Z,25.97
2022-08-17T16:52:49.093Z,25.93
2022-08-17T16:55:20.132Z,25.90
2022-08-17T16:57:50.266Z,25.93
2022-08-17T17:00:19.573Z,26.00
2022-08-17T17:02:47.956Z,25.99
2022-08-17T17:05:46.439Z,25.96
2022-08-17T17:08:30.603Z,25.92
2022-08-17T17:10:59.480Z,25.93
2022-08-17T17:13:59.814Z,25.98
2022-08-17T17:16:27.154Z,25.99
2022-08-17T17:19:10.406Z,25.97
2022-08-17T17:21:46.827Z,25.91
2022-08-17T17:24:17.320Z,25.91
2022-08-17T17:27:07.729Z,25.92
2022-08-17T17:30:04.257Z,25.91
2022-08-17T17:32:41.415Z,25.82
2022-08-17T17:35:11.967Z,25.77
2022-08-17T17:37:39.291Z,25.74
2022-08-17T17:40:13.030Z,25.73
2022-08-17T17:42:42.058Z,25.73
2022-08-17T17:45:16.473Z,25.65
2022-08-17T17:47:44.413Z,25.56
2022-08-17T17:50:12.179Z,25.55
2022-08-17T17:52:56.229Z,25.58
2022-08-17T17:55:54.628Z,25.64
2022-08-17T17:58:28.335Z,25.64
2022-08-17T18:01:13.873Z,25.59
2022-08-17T18:03:57.212Z,25.52
2022-08-17T18:06:51.898Z,25.48
2022-08-17T18:09:34.989Z,25.47
2022-08-17T18:12:09.232Z,25.46
2022-08-17T18:14:53.404Z,25.45
2022-08-17T18:17:21.350Z,25.49
2022-08-17T18:19:48.734Z,25.53
2022-08-17T18:22:21.147Z,25.56
2022-08-17T18:24:56.232Z,25.55
2022-08-17T18:27:25.163Z,25.49
2022-08-17T18:29:55.176Z,25.41
2022-08-17T18:32:30.134Z,25.38
2022-08-17T18:34:57.521Z,25.36
2022-08-17T18:37:45.331Z,25.34
2022-08-17T18:40:19.906Z,25.32
2022-08-17T18:43:09.317Z,25.29
2022-08-17T18:45:43.675Z,25.31
2022-08-17T18:48:29.179Z,25.33
2022-08-17T18:50:59.470Z,25.32
2022-08-17T18:53:36.506Z,25.29
2022-08-17T18:56:21.917Z,25.26
2022-08-17T18:59:13.011Z,25.28
2022-08-17T19:01:54.653Z,25.30
2022-08-17T19:04:38.642Z,25.32
2022-08-17T19:07:07.890Z,25.31
2022-08-17T19:09:47.344Z,25.27
2022-08-17T19:12:30.137Z,25.24
2022-08-17T19:14:57.977Z,25.26
2022-08-17T19:17:41.253Z,25.27
2022-08-17T19:21:03.783Z,25.29
2022-08-17T19:23:41.763Z,25.23
2022-08-17T19:26:54.051Z,25.18
2022-08-17T19:29:39.670Z,25.18
2022-08-17T19:32:07.741Z,25.19
2022-08-17T19:34:36.560Z,25.17
2022-08-17T19:37:36.497Z,25.15
2022-08-17T19:40:04.348Z,25.13
2022-08-17T19:43:06.887Z,25.18
2022-08-17T19:45:52.812Z,25.24
2022-08-17T19:48:26.368Z,25.23
2022-08-17T19:51:04.982Z,25.19
2022-08-17T19:54:16.352Z,25.08
2022-08-17T19:56:47.715Z,25.06
2022-08-17T19:59:52.746Z,25.08
2022-08-17T20:02:32.105Z,25.08
2022-08-17T20:05:02.249Z,25.04
2022-08-17T20:07:44.404Z,25.04
2022-08-17T20:10:18.921Z,25.03
2022-08-17T20:12:46.303Z,24.99
2022-08-17T20:15:28.149Z,24.96
2022-08-17T20:17:57.779Z,24.92
2022-08-17T20:20:40.398Z,24.96
2022-08-17T20:23:48.349Z,25.03
2022-08-17T20:26:23.082Z,25.05
2022-08-17T20:29:15.310Z,25.01
2022-08-17T20:31:49.778Z,24.97
2022-08-17T20:34:31.037Z,24.96
2022-08-17T20:37:08.775Z,24.94
2022-08-17T20:39:44.064Z,24.93
2022-08-17T20:42:20.793Z,24.90
2022-08-17T20:44:50.194Z,24.85
2022-08-17T20:47:18.669Z,24.81
2022-08-17T20:49:54.750Z,24.83
2022-08-17T20:52:55.139Z,24.88
2022-08-17T20:55:35.790Z,24.91
2022-08-17T20:58:30.567Z,24.87
2022-08-17T21:01:01.822Z,24.87
2022-08-17T21:03:32.250Z,24.90
2022-08-17T21:06:18.118Z,24.95
2022-08-17T21:08:57.929Z,24.97
2022-08-17T21:12:03.422Z,24.96
2022-08-17T21:14:25.102Z,24.94
2022-08-17T21:17:29.832Z,24.96
2022-08-17T21:20:20.365Z,24.97
2022-08-17T21:23:02.932Z,24.97
2022-08-17T21:25:54.770Z,24.96
2022-08-17T21:29:00.348Z,24.93
2022-08-17T21:31:35.884Z,24.94
2022-08-17T21:34:16.277Z,24.97
2022-08-17T21:36:44.223Z,24.97
2022-08-17T21:39:23.280Z,24.94
2022-08-17T21:41:56.833Z,24.95
2022-08-17T21:44:37.459Z,24.95
2022-08-17T21:47:16.159Z,24.96
2022-08-17T21:49:43.960Z,24.94
2022-08-17T21:52:14.851Z,24.93
2022-08-17T21:54:44.735Z,24.98
2022-08-17T21:57:17.517Z,25.04
2022-08-17T21:59:44.985Z,25.09
2022-08-17T22:02:22.921Z,25.09
2022-08-17T22:05:13.600Z,25.07
2022-08-17T22:07:42.389Z,25.06
2022-08-17T22:10:38.532Z,25.11
2022-08-17T22:13:20.799Z,25.17
2022-08-17T22:15:50.196Z,25.20
2022-08-17T22:18:21.684Z,25.19
2022-08-17T22:20:51.047Z,25.16
2022-08-17T22:23:45.957Z,25.16
2022-08-17T22:26:14.257Z,25.16
2022-08-17T22:28:47.108Z,25.14
2022-08-17T22:31:28.431Z,25.13
2022-08-17T22:34:01.730Z,25.20
2022-08-17T22:36:30.233Z,25.26
2022-08-17T22:38:59.343Z,25.27
2022-08-17T22:41:27.964Z,25.22
2022-08-17T22:43:57.673Z,25.19
2022-08-17T22:46:25.844Z,25.19
2022-08-17T22:48:56.188Z,25.20
2022-08-17T22:51:25.633Z,25.19
2022-08-17T22:54:17.837Z,25.17
2022-08-17T22:57:15.493Z,25.16
2022-08-17T22:59:48.987Z,25.20
2022-08-17T23:02:23.688Z,25.25
2022-08-17T23:04:53.710Z,25.26
2022-08-17T23:07:22.511Z,25.26
2022-08-17T23:09:52.125Z,25.27
2022-08-17T23:12:23.918Z,25.30
2022-08-17T23:14:52.783Z,25.37
2022-08-17T23:17:20.528Z,25.40
2022-08-17T23:19:47.699Z,25.39
2022-08-17T23:22:14.819Z,25.35
2022-08-17T23:24:49.111Z,25.33
2022-08-17T23:27:17.253Z,25.36
2022-08-17T23:29:44.583Z,25.41
2022-08-17T23:32:15.041Z,25.45
2022-08-17T23:34:43.323Z,25.45
2022-08-17T23:37:11.312Z,25.40
2022-08-17T23:39:39.710Z,25.31
2022-08-17T23:42:08.607Z,25.25
2022-08-17T23:47:21.700Z,25.21
2022-08-17T23:49:48.902Z,25.15
2022-08-17T23:52:22.994Z,25.06
2022-08-17T23:54:50.202Z,25.05
2022-08-17T23:57:19.207Z,25.07
2022-08-17T23:59:46.610Z,25.07
